Time;durP1;ratioP1;P1;durP2;ratioP2;P2;SDS_P1;SDS_P2;PMS_P1;PMS_P2;Temp;Humidity;BMP_temperature;BMP_pressure;BME280_temperature;BME280_humidity;BME280_pressure;Samples;Min_cycle;Max_cycle;Signal;HPM_P1;HPM_P2
2021/08/28 00:01:03;;;;;;;10.85;7.97;;;18.00;70.30;;;;;;4840858;29;20073;-58
2021/08/28 00:03:29;;;;;;;10.18;7.28;;;18.00;70.60;;;;;;4840894;29;20517;-58
2021/08/28 00:05:54;;;;;;;10.00;7.00;;;17.90;70.60;;;;;;4840825;29;20061;-58
2021/08/28 00:08:20;;;;;;;10.82;7.05;;;17.90;70.80;;;;;;4840255;29;20043;-58
2021/08/28 00:10:46;;;;;;;11.63;7.95;;;17.90;70.90;;;;;;4841060;29;20026;-59
2021/08/28 00:13:13;;;;;;;9.55;6.88;;;17.80;71.00;;;;;;4840655;29;20040;-58
2021/08/28 00:15:39;;;;;;;10.80;7.47;;;17.80;71.10;;;;;;4839305;29;20044;-59
2021/08/28 00:18:05;;;;;;;10.73;7.93;;;17.80;71.10;;;;;;4840492;29;20120;-58
2021/08/28 00:20:33;;;;;;;11.90;7.85;;;17.80;71.30;;;;;;4840594;29;20474;-58
2021/08/28 00:23:05;;;;;;;9.88;7.10;;;17.80;71.40;;;;;;4840533;29;20041;-58
2021/08/28 00:25:31;;;;;;;9.90;7.15;;;17.80;71.40;;;;;;4840328;29;20482;-58
2021/08/28 00:27:57;;;;;;;10.70;7.57;;;17.80;71.40;;;;;;4840926;29;20114;-58
2021/08/28 00:30:23;;;;;;;9.77;6.90;;;17.70;71.50;;;;;;4839386;29;20026;-59
2021/08/28 00:32:49;;;;;;;10.00;7.20;;;17.70;71.50;;;;;;4840788;29;20030;-61
2021/08/28 00:35:14;;;;;;;9.85;6.95;;;17.70;71.50;;;;;;4824181;29;20026;-59
2021/08/28 00:37:40;;;;;;;10.55;7.50;;;17.70;71.60;;;;;;4840175;29;20026;-58
2021/08/28 00:40:07;;;;;;;10.15;7.07;;;17.70;71.70;;;;;;4840576;29;20029;-59
2021/08/28 00:42:43;;;;;;;9.43;6.80;;;17.70;71.80;;;;;;4840475;29;20042;-59
2021/08/28 00:45:10;;;;;;;10.52;7.68;;;17.70;71.80;;;;;;4843942;29;20534;-58
2021/08/28 00:47:36;;;;;;;10.15;7.22;;;17.70;71.80;;;;;;4850786;29;20030;-59
2021/08/28 00:50:02;;;;;;;10.55;7.20;;;17.60;71.80;;;;;;4843530;29;20438;-58
2021/08/28 00:52:28;;;;;;;10.57;7.72;;;17.60;71.90;;;;;;4844410;29;20040;-59
2021/08/28 00:54:53;;;;;;;9.65;6.80;;;17.60;71.90;;;;;;4844215;29;20084;-59
2021/08/28 00:57:20;;;;;;;10.00;7.15;;;17.60;72.10;;;;;;4843235;29;20474;-58
2021/08/28 00:59:46;;;;;;;9.75;7.07;;;17.60;72.20;;;;;;4844073;29;20045;-59
2021/08/28 01:02:12;;;;;;;10.45;7.60;;;17.50;72.20;;;;;;4843332;29;20042;-59
2021/08/28 01:04:51;;;;;;;11.48;8.55;;;17.50;72.20;;;;;;4843859;29;20048;-59
2021/08/28 01:07:16;;;;;;;11.18;8.15;;;17.50;72.30;;;;;;4843326;29;20105;-59
2021/08/28 01:09:45;;;;;;;11.38;8.32;;;17.50;72.20;;;;;;4843520;29;20566;-59
2021/08/28 01:12:24;;;;;;;11.35;8.18;;;17.50;72.20;;;;;;4843819;29;20034;-59
2021/08/28 01:14:58;;;;;;;10.75;8.10;;;17.50;72.70;;;;;;4825604;29;20115;-59
2021/08/28 01:17:27;;;;;;;11.63;8.80;;;17.50;72.30;;;;;;4829147;29;20050;-59
2021/08/28 01:20:11;;;;;;;11.20;8.50;;;17.50;72.30;;;;;;4841018;29;20043;-59
2021/08/28 01:22:39;;;;;;;12.50;9.82;;;17.50;72.30;;;;;;4823815;29;20130;-59
2021/08/28 01:25:08;;;;;;;11.75;8.73;;;17.50;72.30;;;;;;4836429;29;20045;-59
2021/08/28 01:27:43;;;;;;;11.75;8.80;;;17.50;72.40;;;;;;4843241;29;20081;-59
2021/08/28 01:30:10;;;;;;;12.20;8.93;;;17.50;72.50;;;;;;4843448;29;20105;-59
2021/08/28 01:32:36;;;;;;;11.85;8.38;;;17.50;72.30;;;;;;4843308;29;20037;-59
2021/08/28 01:35:03;;;;;;;13.00;9.55;;;17.50;72.30;;;;;;4843460;29;20025;-58
2021/08/28 01:37:28;;;;;;;13.00;9.13;;;17.40;72.40;;;;;;4842800;29;20026;-59
2021/08/28 01:39:58;;;;;;;13.75;9.85;;;17.50;72.50;;;;;;4842889;29;20041;-59
2021/08/28 01:42:29;;;;;;;13.32;9.68;;;17.50;72.50;;;;;;4843145;29;20049;-59
2021/08/28 01:44:56;;;;;;;13.25;9.13;;;17.40;72.50;;;;;;4843051;29;20030;-58
2021/08/28 01:47:23;;;;;;;11.90;8.73;;;17.40;72.50;;;;;;4842771;29;20086;-58
2021/08/28 01:49:50;;;;;;;13.25;9.25;;;17.40;72.50;;;;;;4843193;29;20078;-59
2021/08/28 01:52:17;;;;;;;12.52;8.82;;;17.40;72.60;;;;;;4843195;29;20022;-59
2021/08/28 01:54:43;;;;;;;11.75;8.30;;;17.30;72.70;;;;;;4842184;29;20162;-58
2021/08/28 01:57:09;;;;;;;11.98;8.85;;;17.30;72.80;;;;;;4843153;29;20100;-58
2021/08/28 01:59:35;;;;;;;11.02;8.13;;;17.30;72.80;;;;;;4842965;29;20057;-58
2021/08/28 02:02:02;;;;;;;12.50;8.50;;;17.30;72.90;;;;;;4843015;29;20471;-58
2021/08/28 02:04:28;;;;;;;10.85;7.93;;;17.30;73.00;;;;;;4842398;29;20050;-58
2021/08/28 02:07:44;;;;;;;10.95;7.85;;;17.30;73.10;;;;;;4843182;29;20492;-58
2021/08/28 02:10:19;;;;;;;11.18;7.50;;;17.30;73.90;;;;;;4768216;30;20101;-58
2021/08/28 02:12:51;;;;;;;11.18;7.93;;;17.30;73.20;;;;;;4826418;29;20544;-58
2021/08/28 02:15:32;;;;;;;10.52;7.45;;;17.30;73.20;;;;;;4841852;29;20371;-59
2021/08/28 02:18:19;;;;;;;10.45;7.15;;;17.30;73.20;;;;;;4842669;29;20061;-58
2021/08/28 02:20:49;;;;;;;10.20;7.30;;;17.40;73.20;;;;;;4842911;29;20485;-58
2021/08/28 02:23:22;;;;;;;10.07;7.55;;;17.50;73.00;;;;;;4842326;29;20045;-58
2021/08/28 02:26:07;;;;;;;11.13;6.72;;;17.60;72.90;;;;;;4842680;29;20032;-59
2021/08/28 02:28:45;;;;;;;11.48;7.47;;;17.60;72.60;;;;;;4842601;29;20097;-58
2021/08/28 02:31:12;;;;;;;10.77;6.97;;;17.70;72.50;;;;;;4842595;29;20045;-58
2021/08/28 02:33:38;;;;;;;10.48;6.97;;;17.70;72.40;;;;;;4842168;29;20118;-58
2021/08/28 02:36:06;;;;;;;11.10;7.35;;;17.80;72.30;;;;;;4842596;29;20110;-58
2021/08/28 02:38:33;;;;;;;9.95;7.20;;;17.80;72.30;;;;;;4842527;29;20504;-58
2021/08/28 02:41:02;;;;;;;9.75;6.97;;;17.80;72.10;;;;;;4842527;29;20034;-59
2021/08/28 02:43:29;;;;;;;9.82;6.60;;;17.90;72.20;;;;;;4840866;29;20603;-59
2021/08/28 02:45:56;;;;;;;9.88;6.82;;;17.90;72.10;;;;;;4842409;29;20030;-59
2021/08/28 02:48:25;;;;;;;9.90;6.78;;;17.90;72.10;;;;;;4842160;29;20034;-59
2021/08/28 02:50:57;;;;;;;9.70;6.43;;;17.90;72.10;;;;;;4842331;29;20029;-59
2021/08/28 02:53:25;;;;;;;9.10;6.25;;;18.00;72.00;;;;;;4825461;29;20052;-58
2021/08/28 02:55:52;;;;;;;8.27;5.45;;;18.10;72.00;;;;;;4842097;29;20034;-58
2021/08/28 02:58:21;;;;;;;8.07;5.60;;;18.10;71.80;;;;;;4841873;29;20050;-58
2021/08/28 03:00:48;;;;;;;8.93;5.90;;;18.20;71.70;;;;;;4841917;29;20033;-58
2021/08/28 03:03:16;;;;;;;7.80;5.00;;;18.20;71.60;;;;;;4840551;29;20114;-58
2021/08/28 03:05:46;;;;;;;8.95;5.75;;;18.30;71.50;;;;;;4841338;29;20034;-58
2021/08/28 03:08:14;;;;;;;9.02;6.15;;;18.30;71.40;;;;;;4841643;29;20034;-58
2021/08/28 03:10:43;;;;;;;8.98;5.88;;;18.40;71.40;;;;;;4841728;29;20026;-58
2021/08/28 03:13:09;;;;;;;8.98;6.28;;;18.40;71.30;;;;;;4841923;29;20045;-58
2021/08/28 03:15:36;;;;;;;9.50;6.07;;;18.50;71.30;;;;;;4841609;29;20030;-58
2021/08/28 03:18:04;;;;;;;8.93;6.13;;;18.50;71.10;;;;;;4841372;29;20529;-59
2021/08/28 03:20:31;;;;;;;9.05;6.20;;;18.60;71.10;;;;;;4842121;29;20041;-59
2021/08/28 03:22:57;;;;;;;9.38;6.20;;;18.60;71.00;;;;;;4841529;29;20194;-59
2021/08/28 03:25:22;;;;;;;8.63;6.15;;;18.60;70.90;;;;;;4841499;29;20454;-59
2021/08/28 03:27:49;;;;;;;9.93;6.55;;;18.70;70.70;;;;;;4825363;29;20030;-58
2021/08/28 03:30:18;;;;;;;8.20;5.65;;;18.80;70.70;;;;;;4840951;29;20125;-58
2021/08/28 03:32:45;;;;;;;8.55;5.95;;;18.80;70.60;;;;;;4841455;29;20482;-58
2021/08/28 03:35:12;;;;;;;9.00;6.05;;;18.80;70.50;;;;;;4841396;29;20034;-59
2021/08/28 03:37:39;;;;;;;10.75;6.43;;;18.90;70.40;;;;;;4841354;29;20113;-59
2021/08/28 03:40:07;;;;;;;8.43;5.82;;;18.90;70.30;;;;;;4841119;29;20030;-59
2021/08/28 03:42:33;;;;;;;8.90;6.30;;;19.00;70.20;;;;;;4841259;29;20863;-58
2021/08/28 03:45:04;;;;;;;8.98;6.32;;;19.10;70.10;;;;;;4841226;29;20030;-59
2021/08/28 03:47:30;;;;;;;8.30;5.72;;;19.10;70.00;;;;;;4841286;29;20029;-58
2021/08/28 03:49:56;;;;;;;8.90;6.00;;;19.10;69.70;;;;;;4841066;29;20397;-60
2021/08/28 03:52:21;;;;;;;9.48;6.32;;;19.20;69.70;;;;;;4841151;29;20145;-58
2021/08/28 03:54:47;;;;;;;8.18;5.68;;;19.20;69.50;;;;;;4841110;29;20030;-58
2021/08/28 03:57:12;;;;;;;8.80;6.28;;;19.20;69.30;;;;;;4841165;29;20038;-58
2021/08/28 03:59:38;;;;;;;8.68;5.90;;;19.20;69.20;;;;;;4841047;29;20037;-58
2021/08/28 04:02:04;;;;;;;8.15;5.70;;;19.30;69.10;;;;;;4840913;29;20064;-58
2021/08/28 04:04:29;;;;;;;8.43;5.88;;;19.30;69.10;;;;;;4840585;29;20121;-59
2021/08/28 04:06:55;;;;;;;8.80;6.07;;;19.30;69.00;;;;;;4840395;29;20045;-59
2021/08/28 04:09:20;;;;;;;9.07;6.28;;;19.30;68.90;;;;;;4840917;29;20069;-57
2021/08/28 04:11:46;;;;;;;7.75;5.53;;;19.40;69.40;;;;;;4840782;29;20113;-58
2021/08/28 04:14:12;;;;;;;9.10;6.00;;;19.40;68.80;;;;;;4840877;29;20475;-58
2021/08/28 04:16:37;;;;;;;9.52;6.65;;;19.40;68.60;;;;;;4840573;29;20123;-58
2021/08/28 04:19:03;;;;;;;8.85;6.07;;;19.50;68.50;;;;;;4840164;29;20175;-58
2021/08/28 04:21:28;;;;;;;8.95;6.03;;;19.60;68.50;;;;;;4824468;29;20030;-58
2021/08/28 04:23:54;;;;;;;8.30;5.90;;;19.70;68.20;;;;;;4840599;29;20030;-59
2021/08/28 04:26:20;;;;;;;8.25;5.57;;;19.70;68.10;;;;;;4841094;29;20057;-59
2021/08/28 04:28:46;;;;;;;9.48;7.15;;;19.70;68.00;;;;;;4840576;29;20034;-59
2021/08/28 04:31:11;;;;;;;9.30;6.20;;;19.80;67.60;;;;;;4840937;29;20137;-59
2021/08/28 04:33:37;;;;;;;9.20;6.38;;;19.80;67.60;;;;;;4840562;29;20385;-58
2021/08/28 04:36:03;;;;;;;7.68;5.70;;;19.90;67.50;;;;;;4840598;29;20153;-58
2021/08/28 04:38:29;;;;;;;9.27;6.18;;;19.90;67.30;;;;;;4840547;29;20034;-58
2021/08/28 04:40:55;;;;;;;8.95;6.10;;;19.90;67.20;;;;;;4840482;29;20042;-58
2021/08/28 04:43:20;;;;;;;8.30;6.00;;;19.90;67.00;;;;;;4840333;29;20089;-58
2021/08/28 04:45:46;;;;;;;8.35;5.85;;;19.90;67.10;;;;;;4840635;29;20114;-58
2021/08/28 04:48:12;;;;;;;8.65;5.88;;;19.90;67.00;;;;;;4840230;29;20513;-58
2021/08/28 04:50:38;;;;;;;8.43;5.63;;;19.90;67.00;;;;;;4840359;29;20497;-58
2021/08/28 04:53:03;;;;;;;9.35;6.70;;;19.90;67.00;;;;;;4840338;29;20036;-59
2021/08/28 04:55:29;;;;;;;9.23;6.53;;;20.00;66.90;;;;;;4840530;29;20030;-58
2021/08/28 04:57:55;;;;;;;9.40;6.60;;;20.00;66.90;;;;;;4840540;29;20053;-58
2021/08/28 05:00:21;;;;;;;8.85;6.10;;;19.90;66.90;;;;;;4840470;29;20529;-58
2021/08/28 05:02:46;;;;;;;8.80;5.90;;;19.90;67.00;;;;;;4840014;29;20038;-58
2021/08/28 05:05:12;;;;;;;9.10;6.50;;;20.00;67.00;;;;;;4840341;29;20039;-59
2021/08/28 05:07:38;;;;;;;9.23;5.95;;;20.10;66.90;;;;;;4840433;29;20110;-59
2021/08/28 05:10:04;;;;;;;8.13;5.63;;;20.20;66.80;;;;;;4839475;29;20137;-59
2021/08/28 05:12:30;;;;;;;8.20;5.80;;;20.20;66.60;;;;;;4840053;29;20034;-58
2021/08/28 05:14:55;;;;;;;7.88;5.53;;;20.30;66.50;;;;;;4840163;29;20036;-59
2021/08/28 05:17:21;;;;;;;7.93;5.30;;;20.30;66.20;;;;;;4822127;29;20054;-59
2021/08/28 05:19:47;;;;;;;8.25;5.88;;;20.30;66.10;;;;;;4826646;29;20089;-58
2021/08/28 05:22:13;;;;;;;7.43;5.05;;;20.30;66.10;;;;;;4840437;29;20545;-59
2021/08/28 05:24:38;;;;;;;8.15;5.72;;;20.20;66.10;;;;;;4839880;29;20056;-59
2021/08/28 05:27:04;;;;;;;8.55;6.10;;;20.30;66.20;;;;;;4840207;29;20094;-59
2021/08/28 05:29:30;;;;;;;8.23;5.85;;;20.30;66.10;;;;;;4840412;29;20033;-59
2021/08/28 05:31:56;;;;;;;8.35;6.03;;;20.30;66.10;;;;;;4843674;29;20449;-59
2021/08/28 05:34:21;;;;;;;8.63;5.80;;;20.30;66.00;;;;;;4843242;29;20029;-58
2021/08/28 05:36:47;;;;;;;8.88;5.57;;;20.30;66.10;;;;;;4843343;29;20466;-59
2021/08/28 05:39:13;;;;;;;9.05;6.47;;;20.40;66.10;;;;;;4843301;29;20527;-59
2021/08/28 05:41:38;;;;;;;8.45;5.95;;;20.40;65.90;;;;;;4843350;29;20030;-58
2021/08/28 05:44:04;;;;;;;9.13;6.38;;;20.40;65.90;;;;;;4842977;29;20094;-58
2021/08/28 05:46:30;;;;;;;9.07;6.10;;;20.50;65.80;;;;;;4843340;29;20022;-58
2021/08/28 05:48:56;;;;;;;8.70;5.90;;;20.50;65.70;;;;;;4843282;29;20034;-59
2021/08/28 05:51:22;;;;;;;10.52;7.28;;;20.50;65.60;;;;;;4826626;29;20030;-59
2021/08/28 05:53:47;;;;;;;10.63;7.28;;;20.60;65.70;;;;;;4842966;29;20818;-59
2021/08/28 05:56:13;;;;;;;13.73;9.23;;;20.70;65.60;;;;;;4842904;29;20038;-60
2021/08/28 05:58:39;;;;;;;12.75;8.25;;;20.70;65.40;;;;;;4843064;29;20036;-59
2021/08/28 06:01:05;;;;;;;13.52;8.65;;;20.70;65.30;;;;;;4842346;29;20146;-59
2021/08/28 06:03:30;;;;;;;17.40;10.70;;;20.80;65.30;;;;;;4842402;29;20121;-59
2021/08/28 06:05:56;;;;;;;17.25;10.75;;;20.90;65.10;;;;;;4842067;29;20033;-59
2021/08/28 06:08:22;;;;;;;18.92;11.50;;;21.00;65.00;;;;;;4842734;29;20061;-59
2021/08/28 06:10:47;;;;;;;25.30;14.13;;;21.10;64.90;;;;;;4842788;29;20045;-59
2021/08/28 06:13:13;;;;;;;21.42;12.40;;;21.20;64.80;;;;;;4842386;29;20041;-59
2021/08/28 06:15:39;;;;;;;25.92;14.00;;;21.40;64.80;;;;;;4842600;29;20181;-59
2021/08/28 06:18:05;;;;;;;30.08;15.63;;;21.60;64.80;;;;;;4842591;29;20050;-59
2021/08/28 06:20:30;;;;;;;42.70;20.15;;;21.80;64.70;;;;;;4842615;29;20038;-59
2021/08/28 06:22:56;;;;;;;33.83;17.92;;;22.00;64.30;;;;;;4842040;29;20049;-59
2021/08/28 06:25:22;;;;;;;26.40;13.50;;;22.20;64.00;;;;;;4842593;29;20083;-59
2021/08/28 06:27:47;;;;;;;20.35;11.98;;;22.50;63.90;;;;;;4842845;29;20034;-58
2021/08/28 06:30:13;;;;;;;15.60;9.60;;;22.80;63.30;;;;;;4842758;29;20025;-60
2021/08/28 06:32:39;;;;;;;12.38;8.57;;;23.00;62.70;;;;;;4842744;29;20030;-59
2021/08/28 06:35:05;;;;;;;10.02;7.00;;;23.30;62.50;;;;;;4842097;29;20037;-59
2021/08/28 06:37:31;;;;;;;10.25;6.88;;;23.50;62.20;;;;;;4842171;29;20041;-60
2021/08/28 06:39:56;;;;;;;10.90;6.78;;;23.70;61.90;;;;;;4842375;29;20053;-58
2021/08/28 06:42:22;;;;;;;10.85;7.78;;;23.90;61.30;;;;;;4841710;29;20034;-58
2021/08/28 06:44:48;;;;;;;10.50;7.38;;;24.00;60.00;;;;;;4841927;29;20030;-58
2021/08/28 06:47:13;;;;;;;9.52;6.65;;;24.10;59.70;;;;;;4841640;29;20497;-59
2021/08/28 06:49:39;;;;;;;9.05;6.78;;;24.20;59.70;;;;;;4842244;29;20522;-59
2021/08/28 06:52:05;;;;;;;9.43;6.45;;;24.30;59.30;;;;;;4842409;29;20040;-59
2021/08/28 06:54:30;;;;;;;8.48;6.65;;;24.30;59.00;;;;;;4842008;29;20030;-59
2021/08/28 06:56:56;;;;;;;7.82;6.13;;;24.40;58.60;;;;;;4841728;29;20038;-60
2021/08/28 06:59:22;;;;;;;7.90;5.75;;;24.40;58.50;;;;;;4841777;29;20040;-58
2021/08/28 07:01:47;;;;;;;8.80;6.32;;;24.40;58.80;;;;;;4841968;29;20486;-59
2021/08/28 07:04:13;;;;;;;8.98;6.88;;;24.50;58.50;;;;;;4841527;29;20034;-59
2021/08/28 07:06:39;;;;;;;9.07;6.63;;;24.60;58.30;;;;;;4840499;29;20355;-60
2021/08/28 07:09:05;;;;;;;8.98;6.72;;;24.60;57.90;;;;;;4841584;29;20026;-60
2021/08/28 07:11:31;;;;;;;9.35;7.10;;;24.60;57.80;;;;;;4841922;29;20082;-60
2021/08/28 07:14:00;;;;;;;9.43;7.30;;;24.70;57.70;;;;;;4841175;29;20090;-60
2021/08/28 07:16:26;;;;;;;9.68;7.35;;;24.70;57.70;;;;;;4841655;29;20034;-59
2021/08/28 07:18:52;;;;;;;11.02;7.93;;;24.70;57.40;;;;;;4841637;29;20066;-60
2021/08/28 07:21:18;;;;;;;9.77;7.25;;;24.70;57.10;;;;;;4841539;29;20030;-59
2021/08/28 07:23:46;;;;;;;10.18;7.40;;;24.60;57.30;;;;;;4840969;29;20045;-60
2021/08/28 07:26:13;;;;;;;10.35;7.93;;;24.60;57.40;;;;;;4841714;29;20129;-58
2021/08/28 07:28:39;;;;;;;10.15;6.93;;;24.60;57.30;;;;;;4834188;29;20799;-59
2021/08/28 07:31:05;;;;;;;8.80;6.63;;;24.70;57.60;;;;;;4823401;29;20041;-60
2021/08/28 07:33:31;;;;;;;8.27;6.18;;;24.80;57.80;;;;;;4823679;29;20026;-59
2021/08/28 07:35:57;;;;;;;8.30;6.22;;;24.90;57.70;;;;;;4839972;29;20033;-60
2021/08/28 07:38:23;;;;;;;8.20;6.03;;;25.00;57.30;;;;;;4840499;29;20042;-58
2021/08/28 07:40:49;;;;;;;8.40;6.15;;;25.10;57.20;;;;;;4840388;29;20034;-59
2021/08/28 07:43:14;;;;;;;7.60;5.65;;;25.20;57.10;;;;;;4840784;29;20478;-59
2021/08/28 07:45:40;;;;;;;7.18;4.95;;;25.20;56.80;;;;;;4841437;29;20423;-59
2021/08/28 07:48:06;;;;;;;7.60;5.80;;;25.30;56.90;;;;;;4840147;29;20390;-59
2021/08/28 07:50:32;;;;;;;7.13;5.55;;;25.40;56.70;;;;;;4839795;29;20026;-59
2021/08/28 07:52:57;;;;;;;6.93;5.07;;;25.40;56.90;;;;;;4840400;29;20389;-59
2021/08/28 07:55:25;;;;;;;6.60;5.15;;;25.40;57.00;;;;;;4840802;29;20510;-60
2021/08/28 07:57:51;;;;;;;7.85;5.70;;;25.50;57.00;;;;;;4830733;29;20393;-62
2021/08/28 08:00:17;;;;;;;7.22;5.00;;;25.50;56.70;;;;;;4841000;29;20550;-60
2021/08/28 08:02:43;;;;;;;7.18;4.97;;;25.60;56.80;;;;;;4841836;29;20430;-59
2021/08/28 08:05:09;;;;;;;6.72;4.97;;;25.60;56.90;;;;;;4853954;29;20029;-59
2021/08/28 08:07:35;;;;;;;6.80;5.18;;;25.80;56.80;;;;;;4840146;29;20026;-59
2021/08/28 08:10:01;;;;;;;6.97;5.30;;;25.80;56.60;;;;;;4840324;29;20034;-60
2021/08/28 08:12:27;;;;;;;6.57;4.60;;;25.90;56.60;;;;;;4840600;29;20029;-59
2021/08/28 08:14:52;;;;;;;6.30;4.80;;;26.00;56.80;;;;;;4840195;29;20033;-58
2021/08/28 08:17:18;;;;;;;7.00;4.90;;;26.20;56.70;;;;;;4839581;29;20045;-58
2021/08/28 08:19:44;;;;;;;6.88;5.05;;;26.40;56.40;;;;;;4840644;29;20049;-60
2021/08/28 08:22:10;;;;;;;7.55;5.68;;;26.50;56.20;;;;;;4839796;29;20038;-60
2021/08/28 08:24:36;;;;;;;6.32;4.93;;;26.60;55.80;;;;;;4824916;29;20049;-59
2021/08/28 08:27:02;;;;;;;7.03;5.53;;;26.70;55.80;;;;;;4840592;29;20061;-58
2021/08/28 08:29:30;;;;;;;8.75;6.22;;;26.70;55.70;;;;;;4836411;29;20030;-58
2021/08/28 08:31:56;;;;;;;7.38;5.57;;;26.70;55.70;;;;;;4839677;29;20501;-59
2021/08/28 08:34:23;;;;;;;7.55;5.60;;;26.60;55.70;;;;;;4839476;29;20026;-59
2021/08/28 08:36:49;;;;;;;7.30;5.30;;;26.60;55.80;;;;;;4823632;29;20036;-58
2021/08/28 08:39:16;;;;;;;7.10;5.40;;;26.60;56.00;;;;;;4840006;29;20512;-58
2021/08/28 08:41:45;;;;;;;7.70;6.00;;;26.60;56.00;;;;;;4840165;29;20042;-59
2021/08/28 08:44:12;;;;;;;7.70;5.40;;;26.70;55.90;;;;;;4840157;29;20175;-60
2021/08/28 08:46:39;;;;;;;8.55;5.50;;;26.70;56.00;;;;;;4838055;29;20026;-59
2021/08/28 08:49:06;;;;;;;7.50;5.10;;;26.70;56.00;;;;;;4839737;29;20041;-59
2021/08/28 08:51:35;;;;;;;7.00;5.35;;;26.80;56.10;;;;;;4840432;29;20022;-59
2021/08/28 08:54:05;;;;;;;7.32;5.20;;;26.80;56.10;;;;;;4840000;29;20070;-58
2021/08/28 08:56:31;;;;;;;6.50;4.90;;;26.90;55.80;;;;;;4840925;29;20072;-59
2021/08/28 08:58:58;;;;;;;7.50;5.53;;;27.00;56.00;;;;;;4839976;29;20694;-59
2021/08/28 09:01:23;;;;;;;8.02;5.60;;;27.20;55.80;;;;;;4839443;29;20032;-61
2021/08/28 09:03:49;;;;;;;6.80;4.85;;;27.30;55.50;;;;;;4840381;29;20537;-60
2021/08/28 09:06:15;;;;;;;8.30;5.20;;;27.40;56.10;;;;;;4844957;29;20037;-59
2021/08/28 09:08:41;;;;;;;6.90;4.85;;;27.60;55.30;;;;;;4842689;29;20393;-60
2021/08/28 09:11:21;;;;;;;7.30;5.30;;;27.60;55.10;;;;;;4843146;29;20493;-60
2021/08/28 09:13:47;;;;;;;6.80;4.88;;;27.70;54.90;;;;;;4848386;29;20038;-60
2021/08/28 09:16:31;;;;;;;6.57;4.57;;;27.70;54.80;;;;;;4842561;29;20049;-60
2021/08/28 09:18:57;;;;;;;6.43;4.40;;;27.70;54.80;;;;;;4841461;29;20084;-59
2021/08/28 09:21:30;;;;;;;6.57;4.97;;;27.70;55.00;;;;;;4842918;29;20033;-58
2021/08/28 09:24:05;;;;;;;6.63;5.03;;;27.90;54.90;;;;;;4843353;29;20054;-59
2021/08/28 09:26:34;;;;;;;6.47;4.53;;;28.00;54.70;;;;;;4830853;29;20113;-60
2021/08/28 09:29:02;;;;;;;6.38;4.70;;;28.00;54.40;;;;;;4842748;29;20398;-60
2021/08/28 09:31:43;;;;;;;6.15;4.70;;;28.00;54.30;;;;;;4842259;29;20030;-60
2021/08/28 09:34:26;;;;;;;6.15;4.13;;;27.90;54.10;;;;;;4842224;29;20076;-60
2021/08/28 09:37:01;;;;;;;5.78;3.63;;;27.80;54.40;;;;;;4843061;29;20038;-58
2021/08/28 09:39:49;;;;;;;5.80;4.00;;;27.80;54.50;;;;;;4842716;29;20030;-59
2021/08/28 09:42:20;;;;;;;6.15;4.30;;;27.80;54.40;;;;;;4842949;29;20533;-58
2021/08/28 09:44:47;;;;;;;5.90;4.27;;;27.90;54.20;;;;;;4843656;29;20493;-68
2021/08/28 09:47:25;;;;;;;5.53;3.95;;;27.80;53.90;;;;;;4843451;29;20258;-59
2021/08/28 09:49:53;;;;;;;5.68;4.20;;;27.60;54.00;;;;;;4842740;29;20032;-59
2021/08/28 09:52:22;;;;;;;6.70;5.00;;;27.50;54.40;;;;;;4843305;29;20034;-59
2021/08/28 09:54:49;;;;;;;6.40;4.90;;;27.30;54.30;;;;;;4842895;29;20087;-59
2021/08/28 09:57:15;;;;;;;6.30;4.30;;;27.20;54.60;;;;;;4842665;29;20033;-59
2021/08/28 09:59:42;;;;;;;7.00;4.57;;;27.20;54.80;;;;;;4843216;29;20394;-59
2021/08/28 10:02:14;;;;;;;5.38;3.67;;;27.30;55.00;;;;;;4826651;29;20034;-60
2021/08/28 10:04:59;;;;;;;5.60;3.90;;;27.50;55.00;;;;;;4842950;29;20078;-69
2021/08/28 10:07:26;;;;;;;5.68;3.92;;;27.80;54.70;;;;;;4843453;29;20377;-59
2021/08/28 10:10:04;;;;;;;6.32;4.63;;;28.10;54.60;;;;;;4842972;29;20098;-60
2021/08/28 10:12:34;;;;;;;5.70;3.90;;;28.40;53.50;;;;;;4842926;29;20491;-66
2021/08/28 10:15:05;;;;;;;5.50;3.75;;;28.70;53.50;;;;;;4842462;29;20542;-61
2021/08/28 10:17:32;;;;;;;5.83;3.87;;;29.10;53.70;;;;;;4842018;29;20069;-59
2021/08/28 10:19:58;;;;;;;5.50;3.97;;;29.50;53.00;;;;;;4843161;29;20273;-63
2021/08/28 10:22:27;;;;;;;5.55;3.72;;;29.80;52.20;;;;;;4841639;29;20034;-62
2021/08/28 10:24:57;;;;;;;5.78;4.03;;;30.10;51.90;;;;;;4842789;29;20022;-63
2021/08/28 10:27:24;;;;;;;9.23;4.68;;;30.20;50.80;;;;;;4842897;29;20029;-63
2021/08/28 10:29:50;;;;;;;5.88;4.10;;;30.20;49.90;;;;;;4826371;29;20497;-63
2021/08/28 10:32:17;;;;;;;5.90;4.32;;;30.00;49.80;;;;;;4842567;29;20030;-67
2021/08/28 10:34:43;;;;;;;7.00;4.80;;;29.80;50.10;;;;;;4842484;29;20034;-66
2021/08/28 10:37:09;;;;;;;6.43;4.70;;;29.60;50.00;;;;;;4842308;29;20038;-71
2021/08/28 10:39:36;;;;;;;6.00;4.30;;;29.50;50.30;;;;;;4842127;29;20033;-65
2021/08/28 10:42:06;;;;;;;6.15;4.40;;;29.60;50.70;;;;;;4842341;29;20022;-67
2021/08/28 10:44:31;;;;;;;6.72;4.35;;;29.90;50.60;;;;;;4842337;29;20439;-66
2021/08/28 10:46:57;;;;;;;5.72;4.30;;;30.00;50.10;;;;;;4842266;29;20062;-67
2021/08/28 10:49:24;;;;;;;5.70;4.28;;;30.00;50.20;;;;;;4842436;29;20030;-69
2021/08/28 10:51:55;;;;;;;6.22;4.20;;;30.00;50.50;;;;;;4842247;29;20026;-69
2021/08/28 10:54:28;;;;;;;7.03;4.07;;;30.30;50.90;;;;;;4842395;29;20030;-74
2021/08/28 10:57:01;;;;;;;5.50;4.00;;;30.70;50.60;;;;;;4842250;29;20049;-68
2021/08/28 10:59:28;;;;;;;6.95;4.53;;;31.40;50.50;;;;;;4842126;29;20026;-65
2021/08/28 11:02:09;;;;;;;6.28;4.03;;;31.90;49.90;;;;;;4826103;29;20046;-65
2021/08/28 11:04:38;;;;;;;6.57;4.40;;;32.30;49.70;;;;;;4842068;29;20029;-64
2021/08/28 11:07:27;;;;;;;5.63;4.10;;;32.70;48.30;;;;;;4842004;29;20033;-66
2021/08/28 11:10:21;;;;;;;5.15;3.70;;;32.70;47.80;;;;;;4841869;29;20113;-68
2021/08/28 11:12:48;;;;;;;5.55;3.35;;;32.60;47.40;;;;;;4841199;29;20034;-65
2021/08/28 11:15:35;;;;;;;6.25;3.58;;;32.50;47.90;;;;;;4842026;29;20033;-65
2021/08/28 11:18:09;;;;;;;5.53;3.88;;;32.40;47.70;;;;;;4841637;29;20102;-65
2021/08/28 11:20:51;;;;;;;5.05;3.58;;;32.40;48.00;;;;;;4841871;29;20117;-66
2021/08/28 11:23:19;;;;;;;5.07;3.58;;;32.40;46.60;;;;;;4841197;29;20034;-66
2021/08/28 11:25:51;;;;;;;5.40;4.05;;;32.30;47.30;;;;;;4842096;29;20030;-67
2021/08/28 11:28:20;;;;;;;5.30;3.80;;;32.00;46.80;;;;;;4841368;29;20030;-66
2021/08/28 11:30:46;;;;;;;5.50;4.07;;;31.60;47.10;;;;;;4841750;29;20030;-61
2021/08/28 11:33:23;;;;;;;5.40;3.92;;;31.30;47.30;;;;;;4841251;29;20113;-62
2021/08/28 11:35:56;;;;;;;5.18;3.47;;;31.30;48.00;;;;;;4845283;29;20385;-63
2021/08/28 11:38:33;;;;;;;6.00;4.20;;;31.70;48.50;;;;;;4856367;29;20033;-62
2021/08/28 11:41:01;;;;;;;5.38;3.88;;;32.00;47.40;;;;;;4843233;29;20053;-61
2021/08/28 11:43:35;;;;;;;5.50;3.83;;;32.00;47.40;;;;;;4859878;29;20712;-61
2021/08/28 11:46:03;;;;;;;5.38;3.67;;;31.70;46.70;;;;;;4859805;29;20481;-61
2021/08/28 11:48:29;;;;;;;5.22;3.67;;;31.50;46.90;;;;;;4859799;29;20054;-62
2021/08/28 11:50:56;;;;;;;6.20;4.10;;;31.20;47.00;;;;;;4859750;29;20116;-74
2021/08/28 11:53:27;;;;;;;5.25;3.60;;;31.00;46.60;;;;;;4842931;29;20033;-62
2021/08/28 11:56:02;;;;;;;5.38;3.70;;;30.60;47.10;;;;;;4859793;29;20053;-62
2021/08/28 11:58:27;;;;;;;4.78;3.35;;;30.40;47.60;;;;;;4843011;29;20037;-62
2021/08/28 12:00:54;;;;;;;5.40;3.53;;;30.20;47.90;;;;;;4859735;29;20116;-63
2021/08/28 12:03:20;;;;;;;5.20;3.45;;;30.40;48.60;;;;;;4859336;29;20461;-62
2021/08/28 12:05:46;;;;;;;5.32;3.30;;;31.10;49.00;;;;;;4841189;29;20040;-64
2021/08/28 12:08:14;;;;;;;4.90;3.40;;;32.00;49.40;;;;;;4844664;29;20030;-65
2021/08/28 12:10:44;;;;;;;5.30;3.40;;;33.00;48.20;;;;;;4840232;29;20037;-63
2021/08/28 12:13:10;;;;;;;5.43;3.53;;;33.80;46.50;;;;;;4840021;29;20074;-63
2021/08/28 12:15:36;;;;;;;4.72;3.30;;;34.10;45.10;;;;;;4840271;29;20137;-62
2021/08/28 12:18:01;;;;;;;4.80;2.92;;;34.30;44.60;;;;;;4839821;29;20052;-62
2021/08/28 12:20:32;;;;;;;5.15;3.42;;;34.50;44.50;;;;;;4839593;29;20176;-63
2021/08/28 12:23:01;;;;;;;5.68;3.03;;;35.00;44.00;;;;;;4839866;29;20022;-63
2021/08/28 12:25:28;;;;;;;4.88;3.10;;;35.50;43.90;;;;;;4840386;29;20038;-64
2021/08/28 12:27:54;;;;;;;4.57;3.00;;;36.10;43.60;;;;;;4840408;29;20045;-63
2021/08/28 12:30:21;;;;;;;5.82;3.15;;;36.60;42.70;;;;;;4822816;29;20551;-64
2021/08/28 12:32:47;;;;;;;4.75;3.00;;;37.10;42.00;;;;;;4828642;29;20038;-64
2021/08/28 12:35:13;;;;;;;4.95;3.17;;;37.40;41.30;;;;;;4840636;29;20061;-64
2021/08/28 12:37:40;;;;;;;4.20;2.70;;;37.80;40.20;;;;;;4836528;29;20546;-64
2021/08/28 12:40:13;;;;;;;4.10;2.60;;;38.00;39.90;;;;;;4843428;29;20117;-64
2021/08/28 12:42:39;;;;;;;4.47;2.85;;;38.30;40.20;;;;;;4844389;29;20082;-63
2021/08/28 12:45:08;;;;;;;4.75;2.90;;;38.80;39.30;;;;;;4844086;29;20022;-64
2021/08/28 12:47:41;;;;;;;4.30;2.70;;;39.00;39.00;;;;;;4844521;29;20566;-65